createdAt,value
2023-05-19T00:01:19.142Z,2.40
2023-05-19T00:03:54.002Z,2.50
2023-05-19T00:06:25.833Z,2.53
2023-05-19T00:09:15.107Z,2.40
2023-05-19T00:11:42.000Z,2.38
2023-05-19T00:14:10.059Z,2.58
2023-05-19T00:16:40.637Z,2.70
2023-05-19T00:19:10.362Z,2.45
2023-05-19T00:21:40.990Z,2.17
2023-05-19T00:24:07.970Z,2.10
2023-05-19T00:26:34.763Z,2.33
2023-05-19T00:29:01.504Z,2.40
2023-05-19T00:31:29.217Z,2.58
2023-05-19T00:33:56.004Z,2.33
2023-05-19T00:36:22.954Z,2.40
2023-05-19T00:38:51.114Z,2.30
2023-05-19T00:41:18.123Z,2.55
2023-05-19T00:43:45.000Z,2.40
2023-05-19T00:46:11.907Z,2.22
2023-05-19T00:48:38.681Z,2.30
2023-05-19T00:51:06.668Z,2.30
2023-05-19T00:53:35.051Z,2.50
2023-05-19T00:56:03.111Z,2.30
2023-05-19T00:58:32.495Z,2.60
2023-05-19T01:01:04.390Z,2.28
2023-05-19T01:03:35.038Z,2.30
2023-05-19T01:06:06.016Z,2.60
2023-05-19T01:08:37.635Z,2.45
2023-05-19T01:11:08.466Z,2.22
2023-05-19T01:13:36.332Z,2.40
2023-05-19T01:16:16.693Z,2.70
2023-05-19T01:19:14.753Z,2.80
2023-05-19T01:22:13.114Z,2.60
2023-05-19T01:25:10.392Z,2.80
2023-05-19T01:28:11.850Z,2.60
2023-05-19T01:30:43.914Z,2.92
2023-05-19T01:33:16.104Z,2.80
2023-05-19T01:35:43.933Z,3.40
2023-05-19T01:38:13.064Z,3.03
2023-05-19T01:40:41.744Z,3.30
2023-05-19T01:43:10.917Z,2.90
2023-05-19T01:45:48.670Z,3.30
2023-05-19T01:48:15.891Z,3.50
2023-05-19T01:50:42.834Z,3.75
2023-05-19T01:53:09.784Z,3.80
2023-05-19T01:55:43.510Z,3.70
2023-05-19T01:58:43.925Z,3.70
2023-05-19T02:01:22.147Z,3.50
2023-05-19T02:04:19.704Z,3.72
2023-05-19T02:06:49.971Z,3.67
2023-05-19T02:09:30.326Z,3.80
2023-05-19T02:12:11.450Z,3.30
2023-05-19T02:15:07.170Z,3.20
2023-05-19T02:17:38.409Z,3.42
2023-05-19T02:20:06.754Z,3.50
2023-05-19T02:22:33.504Z,3.90
2023-05-19T02:25:00.343Z,3.70
2023-05-19T02:27:27.334Z,3.60
2023-05-19T02:29:54.157Z,4.20
2023-05-19T02:32:21.260Z,4.20
2023-05-19T02:34:48.147Z,4.63
2023-05-19T02:37:15.632Z,3.63
2023-05-19T02:39:42.949Z,4.03
2023-05-19T02:42:09.709Z,4.00
2023-05-19T02:44:36.673Z,3.97
2023-05-19T02:47:03.492Z,4.32
2023-05-19T02:49:30.998Z,4.07
2023-05-19T02:51:57.724Z,4.32
2023-05-19T02:54:24.500Z,4.07
2023-05-19T02:56:51.225Z,4.90
2023-05-19T02:59:17.907Z,4.53
2023-05-19T03:01:44.619Z,4.70
2023-05-19T03:04:11.385Z,4.93
2023-05-19T03:06:38.666Z,5.00
2023-05-19T03:09:05.953Z,4.80
2023-05-19T03:11:32.670Z,4.43
2023-05-19T03:13:59.565Z,4.68
2023-05-19T03:16:28.126Z,4.72
2023-05-19T03:18:55.946Z,4.82
2023-05-19T03:21:22.857Z,4.82
2023-05-19T03:23:49.613Z,5.03
2023-05-19T03:26:16.323Z,4.97
2023-05-19T03:28:43.058Z,4.78
2023-05-19T03:31:09.751Z,4.63
2023-05-19T03:33:36.546Z,5.20
2023-05-19T03:36:04.113Z,5.15
2023-05-19T03:38:30.942Z,4.95
2023-05-19T03:40:57.667Z,4.95
2023-05-19T03:43:24.428Z,4.85
2023-05-19T03:45:51.455Z,5.15
2023-05-19T03:48:21.106Z,4.72
2023-05-19T03:50:48.622Z,5.13
2023-05-19T03:53:15.637Z,5.25
2023-05-19T03:55:42.407Z,4.60
2023-05-19T03:58:10.642Z,5.13
2023-05-19T04:00:37.435Z,5.38
2023-05-19T04:03:04.293Z,4.53
2023-05-19T04:05:31.422Z,4.80
2023-05-19T04:07:58.126Z,5.03
2023-05-19T04:10:24.863Z,4.85
2023-05-19T04:12:51.610Z,4.90
2023-05-19T04:15:18.351Z,5.55
2023-05-19T04:18:12.814Z,4.75
2023-05-19T04:20:39.539Z,5.20
2023-05-19T04:23:06.502Z,4.90
2023-05-19T04:25:33.602Z,4.95
2023-05-19T04:28:00.632Z,4.57
2023-05-19T04:30:28.556Z,5.30
2023-05-19T04:32:58.099Z,5.03
2023-05-19T04:35:25.097Z,4.90
2023-05-19T04:37:54.337Z,4.90
2023-05-19T04:40:23.951Z,4.93
2023-05-19T04:42:54.086Z,4.80
2023-05-19T04:45:20.886Z,4.63
2023-05-19T04:47:48.232Z,5.10
2023-05-19T04:50:16.447Z,4.55
2023-05-19T04:52:45.558Z,4.68
2023-05-19T04:55:13.426Z,5.18
2023-05-19T04:57:40.463Z,4.30
2023-05-19T05:00:12.746Z,5.47
2023-05-19T05:02:39.602Z,5.03
2023-05-19T05:05:07.010Z,4.88
2023-05-19T05:07:33.756Z,4.57
2023-05-19T05:10:00.524Z,4.43
2023-05-19T05:12:27.535Z,4.40
2023-05-19T05:14:54.558Z,4.70
2023-05-19T05:17:21.564Z,4.70
2023-05-19T05:19:48.683Z,4.50
2023-05-19T05:22:15.880Z,4.70
2023-05-19T05:24:42.867Z,4.93
2023-05-19T05:27:10.268Z,4.35
2023-05-19T05:29:37.149Z,4.78
2023-05-19T05:32:04.072Z,4.32
2023-05-19T05:34:30.965Z,4.60
2023-05-19T05:36:57.665Z,4.20
2023-05-19T05:39:24.378Z,4.82
2023-05-19T05:41:51.114Z,4.97
2023-05-19T05:44:17.846Z,4.35
2023-05-19T05:46:44.822Z,4.72
2023-05-19T05:49:13.450Z,4.35
2023-05-19T05:51:42.932Z,5.18
2023-05-19T05:54:12.894Z,4.55
2023-05-19T05:56:41.216Z,4.95
2023-05-19T05:59:07.965Z,4.97
2023-05-19T06:01:35.933Z,4.75
2023-05-19T06:04:02.790Z,4.40
2023-05-19T06:06:29.563Z,4.60
2023-05-19T06:08:56.416Z,4.82
2023-05-19T06:11:23.389Z,4.80
2023-05-19T06:13:50.100Z,4.35
2023-05-19T06:16:16.892Z,4.72
2023-05-19T06:18:43.793Z,4.25
2023-05-19T06:21:10.619Z,4.43
2023-05-19T06:23:37.371Z,4.40
2023-05-19T06:26:12.440Z,4.40
2023-05-19T06:28:40.032Z,4.60
2023-05-19T06:31:11.603Z,4.63
2023-05-19T06:33:38.795Z,4.65
2023-05-19T06:36:14.073Z,5.13
2023-05-19T06:38:48.479Z,4.32
2023-05-19T06:44:39.931Z,4.50
2023-05-19T06:47:26.585Z,4.72
2023-05-19T06:49:56.842Z,3.50
2023-05-19T06:52:29.061Z,4.18
2023-05-19T06:54:55.985Z,4.50
2023-05-19T06:57:22.924Z,4.05
2023-05-19T06:59:52.418Z,3.60
2023-05-19T07:02:19.246Z,4.18
2023-05-19T07:04:46.025Z,3.80
2023-05-19T07:07:12.958Z,3.92
2023-05-19T07:09:40.072Z,4.20
2023-05-19T07:12:07.012Z,3.80
2023-05-19T07:14:33.780Z,3.53
2023-05-19T07:17:00.536Z,3.88
2023-05-19T07:19:27.424Z,3.42
2023-05-19T07:21:55.018Z,3.58
2023-05-19T07:24:22.231Z,4.10
2023-05-19T07:26:49.218Z,4.00
2023-05-19T07:29:15.960Z,3.75
2023-05-19T07:31:42.847Z,3.40
2023-05-19T07:34:09.721Z,4.20
2023-05-19T07:36:36.544Z,3.88
2023-05-19T07:39:03.588Z,3.63
2023-05-19T07:41:30.691Z,3.78
2023-05-19T07:43:57.489Z,3.70
2023-05-19T07:46:24.308Z,3.38
2023-05-19T07:48:51.126Z,3.50
2023-05-19T07:51:19.358Z,3.38
2023-05-19T07:53:47.217Z,3.50
2023-05-19T07:56:14.078Z,3.60
2023-05-19T07:58:40.896Z,3.13
2023-05-19T08:01:16.927Z,3.95
2023-05-19T08:03:43.813Z,3.42
2023-05-19T08:06:10.637Z,3.47
2023-05-19T08:08:37.428Z,3.47
2023-05-19T08:11:04.855Z,2.97
2023-05-19T08:13:31.723Z,2.90
2023-05-19T08:16:00.047Z,3.20
2023-05-19T08:18:27.088Z,3.30
2023-05-19T08:20:54.136Z,3.05
2023-05-19T08:23:23.988Z,3.15
2023-05-19T08:25:51.271Z,3.33
2023-05-19T08:28:18.034Z,3.30
2023-05-19T08:30:44.828Z,3.50
2023-05-19T08:33:11.744Z,3.40
2023-05-19T08:35:38.575Z,3.25
2023-05-19T08:38:07.886Z,3.10
2023-05-19T08:40:37.259Z,3.08
2023-05-19T08:43:04.114Z,2.88
2023-05-19T08:45:31.685Z,3.35
2023-05-19T08:47:58.659Z,3.17
2023-05-19T08:50:31.262Z,3.65
2023-05-19T08:56:14.371Z,3.50
2023-05-19T08:58:46.630Z,3.60
2023-05-19T09:01:17.035Z,3.40
2023-05-19T09:03:45.774Z,3.10
2023-05-19T09:06:13.141Z,3.20
2023-05-19T09:08:41.445Z,4.07
2023-05-19T09:11:10.275Z,3.30
2023-05-19T09:13:37.250Z,3.10
2023-05-19T09:16:04.355Z,3.60
2023-05-19T09:18:31.488Z,3.38
2023-05-19T09:21:00.551Z,3.40
2023-05-19T09:23:29.584Z,3.13
2023-05-19T09:25:57.388Z,3.50
2023-05-19T09:28:26.044Z,3.60
2023-05-19T09:31:06.484Z,3.90
2023-05-19T09:33:34.925Z,3.78
2023-05-19T09:36:03.288Z,3.53
2023-05-19T09:38:30.087Z,3.40
2023-05-19T09:40:58.391Z,3.20
2023-05-19T09:43:31.816Z,3.90
2023-05-19T09:46:08.994Z,3.60
2023-05-19T09:48:37.638Z,3.70
2023-05-19T09:51:06.467Z,3.53
2023-05-19T09:53:35.010Z,3.85
2023-05-19T09:56:02.489Z,3.80
2023-05-19T09:58:36.917Z,3.90
2023-05-19T10:03:33.120Z,3.67
2023-05-19T10:06:01.688Z,3.20
2023-05-19T10:08:30.743Z,3.60
2023-05-19T10:10:58.351Z,3.70
2023-05-19T10:13:26.997Z,3.65
2023-05-19T10:15:58.647Z,3.72
2023-05-19T10:18:27.809Z,3.42
2023-05-19T10:20:54.784Z,3.55
2023-05-19T10:23:22.480Z,3.72
2023-05-19T10:25:51.843Z,3.65
2023-05-19T10:28:24.948Z,4.60
2023-05-19T10:30:56.575Z,3.90
2023-05-19T10:33:37.264Z,4.38
2023-05-19T10:36:32.967Z,4.63
2023-05-19T10:39:04.640Z,4.60
2023-05-19T10:41:43.000Z,4.70
2023-05-19T10:44:19.621Z,4.50
2023-05-19T10:46:46.686Z,4.40
2023-05-19T10:49:21.750Z,4.63
2023-05-19T10:51:48.810Z,4.43
2023-05-19T10:54:17.365Z,4.30
2023-05-19T10:56:47.475Z,5.10
2023-05-19T10:59:35.632Z,4.85
2023-05-19T11:02:06.625Z,6.05
2023-05-19T11:04:50.978Z,6.05
2023-05-19T11:09:51.594Z,5.38
2023-05-19T11:12:25.464Z,5.47
2023-05-19T11:14:55.913Z,5.53
2023-05-19T11:17:25.602Z,5.55
2023-05-19T11:19:57.074Z,5.80
2023-05-19T11:22:26.185Z,5.35
2023-05-19T11:24:55.352Z,6.65
2023-05-19T11:27:32.956Z,5.50
2023-05-19T11:30:07.576Z,5.82
2023-05-19T11:32:36.032Z,5.57
2023-05-19T11:35:03.422Z,6.03
2023-05-19T11:37:56.309Z,5.80
2023-05-19T11:40:23.874Z,6.40
2023-05-19T11:42:50.923Z,6.50
2023-05-19T11:45:17.659Z,5.53
2023-05-19T11:48:01.283Z,6.63
2023-05-19T11:50:31.241Z,6.30
2023-05-19T11:53:00.925Z,6.38
2023-05-19T11:55:28.282Z,6.10
2023-05-19T11:58:05.249Z,6.65
2023-05-19T12:00:39.322Z,6.07
2023-05-19T12:03:07.481Z,6.33
2023-05-19T12:05:40.942Z,6.60
2023-05-19T12:08:10.328Z,6.00
2023-05-19T12:10:38.392Z,6.53
2023-05-19T12:13:09.042Z,6.15
2023-05-19T12:15:36.603Z,5.85
2023-05-19T12:18:03.870Z,6.00
2023-05-19T12:20:32.523Z,5.75
2023-05-19T12:23:00.774Z,6.25
2023-05-19T12:25:31.841Z,6.18
2023-05-19T12:28:00.267Z,6.70
2023-05-19T12:30:29.220Z,6.47
2023-05-19T12:32:59.669Z,6.15
2023-05-19T12:35:37.973Z,6.03
2023-05-19T12:38:08.184Z,6.35
2023-05-19T12:40:36.280Z,5.40
2023-05-19T12:43:03.994Z,5.80
2023-05-19T12:45:34.988Z,5.40
2023-05-19T12:48:06.671Z,5.57
2023-05-19T12:50:34.549Z,5.57
2023-05-19T12:53:08.573Z,5.35
2023-05-19T12:55:42.999Z,5.20
2023-05-19T12:58:11.495Z,6.22
2023-05-19T13:00:47.334Z,6.53
2023-05-19T13:03:20.764Z,5.88
2023-05-19T13:08:20.153Z,6.60
2023-05-19T13:10:47.802Z,6.57
2023-05-19T13:13:14.742Z,6.75
2023-05-19T13:15:49.725Z,6.57
2023-05-19T13:18:17.343Z,6.05
2023-05-19T13:20:45.162Z,6.22
2023-05-19T13:23:12.436Z,6.28
2023-05-19T13:25:39.700Z,7.07
2023-05-19T13:28:06.745Z,6.50
2023-05-19T13:30:38.622Z,6.68
2023-05-19T13:33:06.423Z,5.45
2023-05-19T13:35:39.255Z,5.95
2023-05-19T13:38:07.885Z,5.30
2023-05-19T13:40:35.204Z,6.00
2023-05-19T13:43:03.374Z,6.43
2023-05-19T13:45:30.550Z,6.20
2023-05-19T13:47:57.546Z,6.30
2023-05-19T13:50:31.317Z,6.30
2023-05-19T13:52:58.075Z,7.20
2023-05-19T13:55:27.384Z,6.47
2023-05-19T13:57:54.192Z,6.70
2023-05-19T14:00:21.456Z,7.07
2023-05-19T14:02:48.329Z,6.50
2023-05-19T14:05:15.223Z,6.25
2023-05-19T14:07:42.771Z,6.55
2023-05-19T14:10:09.901Z,6.30
2023-05-19T14:12:44.949Z,6.32
2023-05-19T14:15:23.793Z,6.82
2023-05-19T14:17:50.707Z,6.70
2023-05-19T14:20:17.568Z,6.10
2023-05-19T14:22:44.354Z,6.90
2023-05-19T14:25:11.315Z,6.65
2023-05-19T14:27:40.001Z,6.00
2023-05-19T14:30:08.185Z,6.53
2023-05-19T14:32:35.031Z,5.93
2023-05-19T14:35:02.101Z,6.15
2023-05-19T14:37:29.040Z,6.63
2023-05-19T14:39:56.951Z,5.90
2023-05-19T14:42:23.859Z,6.35
2023-05-19T14:44:50.594Z,6.28
2023-05-19T14:47:17.335Z,5.85
2023-05-19T14:49:44.097Z,6.13
2023-05-19T14:52:10.857Z,5.75
2023-05-19T14:54:37.573Z,6.40
2023-05-19T14:57:04.583Z,6.32
2023-05-19T14:59:31.393Z,6.03
2023-05-19T15:01:58.228Z,6.00
2023-05-19T15:04:25.078Z,6.05
2023-05-19T15:07:05.946Z,5.78
2023-05-19T15:12:03.541Z,5.63
2023-05-19T15:14:31.194Z,6.28
2023-05-19T15:16:58.541Z,6.10
2023-05-19T15:19:26.071Z,5.97
2023-05-19T15:21:53.117Z,5.25
2023-05-19T15:24:19.861Z,5.70
2023-05-19T15:26:47.240Z,5.85
2023-05-19T15:29:14.193Z,5.40
2023-05-19T15:31:41.297Z,5.45
2023-05-19T15:34:08.345Z,5.70
2023-05-19T15:36:42.442Z,5.50
2023-05-19T15:39:10.035Z,5.22
2023-05-19T15:41:36.767Z,4.80
2023-05-19T15:44:03.608Z,4.90
2023-05-19T15:46:30.858Z,5.15
2023-05-19T15:48:57.607Z,5.43
2023-05-19T15:51:24.541Z,5.47
2023-05-19T15:54:03.671Z,5.50
2023-05-19T15:56:30.458Z,4.82
2023-05-19T15:58:57.171Z,5.57
2023-05-19T16:01:24.006Z,4.93
2023-05-19T16:03:51.106Z,5.40
2023-05-19T16:06:18.081Z,5.50
2023-05-19T16:08:44.831Z,5.00
2023-05-19T16:11:11.591Z,4.90
2023-05-19T16:13:42.557Z,5.40
2023-05-19T16:16:09.393Z,5.80
2023-05-19T16:18:36.233Z,5.15
2023-05-19T16:21:03.141Z,5.35
2023-05-19T16:23:29.988Z,4.97
2023-05-19T16:25:57.601Z,5.22
2023-05-19T16:28:24.921Z,4.95
2023-05-19T16:31:08.337Z,5.15
2023-05-19T16:33:35.070Z,5.13
2023-05-19T16:36:01.906Z,5.35
2023-05-19T16:38:30.810Z,5.43
2023-05-19T16:40:57.572Z,5.40
2023-05-19T16:43:24.337Z,5.38
2023-05-19T16:45:51.174Z,5.13
2023-05-19T16:48:17.984Z,5.47
2023-05-19T16:50:47.397Z,6.07
2023-05-19T16:53:14.124Z,5.22
2023-05-19T16:55:40.849Z,6.55
2023-05-19T16:58:07.578Z,6.53
2023-05-19T17:00:34.482Z,5.75
2023-05-19T17:03:01.562Z,6.43
2023-05-19T17:05:29.077Z,6.55
2023-05-19T17:07:55.786Z,5.90
2023-05-19T17:10:22.652Z,6.47
2023-05-19T17:12:49.424Z,6.40
2023-05-19T17:15:16.772Z,6.63
2023-05-19T17:17:43.527Z,6.72
2023-05-19T17:20:11.262Z,6.20
2023-05-19T17:22:37.999Z,6.88
2023-05-19T17:25:05.184Z,6.82
2023-05-19T17:27:31.908Z,6.00
2023-05-19T17:29:58.644Z,6.60
2023-05-19T17:32:28.304Z,6.75
2023-05-19T17:34:55.669Z,6.57
2023-05-19T17:37:25.739Z,6.47
2023-05-19T17:39:52.792Z,5.95
2023-05-19T17:42:19.605Z,5.57
2023-05-19T17:44:46.306Z,6.18
2023-05-19T17:47:13.483Z,6.38
2023-05-19T17:49:41.439Z,6.30
2023-05-19T17:52:08.860Z,5.60
2023-05-19T17:54:35.986Z,6.55
2023-05-19T17:57:05.023Z,6.63
2023-05-19T17:59:32.123Z,6.47
2023-05-19T18:01:59.138Z,6.55
2023-05-19T18:04:26.236Z,6.53
2023-05-19T18:06:53.528Z,6.53
2023-05-19T18:09:23.137Z,6.13
2023-05-19T18:11:49.914Z,7.40
2023-05-19T18:14:16.625Z,6.18
2023-05-19T18:16:43.663Z,6.57
2023-05-19T18:19:10.602Z,6.45
2023-05-19T18:21:37.370Z,6.35
2023-05-19T18:24:05.436Z,6.38
2023-05-19T18:26:33.469Z,6.50
2023-05-19T18:29:02.800Z,6.10
2023-05-19T18:31:29.745Z,6.72
2023-05-19T18:33:56.543Z,6.30
2023-05-19T18:36:23.720Z,6.40
2023-05-19T18:38:50.693Z,6.07
2023-05-19T18:41:17.527Z,6.28
2023-05-19T18:43:44.627Z,6.28
2023-05-19T18:46:11.510Z,6.78
2023-05-19T18:48:38.304Z,6.60
2023-05-19T18:51:05.075Z,6.20
2023-05-19T18:53:34.669Z,6.28
2023-05-19T18:56:01.630Z,6.47
2023-05-19T18:58:28.370Z,6.75
2023-05-19T19:00:58.474Z,8.43
2023-05-19T19:03:25.216Z,7.63
2023-05-19T19:05:59.096Z,6.90
2023-05-19T19:08:25.910Z,7.65
2023-05-19T19:10:53.734Z,7.47
2023-05-19T19:13:21.132Z,7.15
2023-05-19T19:15:47.867Z,7.32
2023-05-19T19:18:14.588Z,7.63
2023-05-19T19:20:41.406Z,7.35
2023-05-19T19:23:08.259Z,7.22
2023-05-19T19:25:35.265Z,7.18
2023-05-19T19:28:02.379Z,6.78
2023-05-19T19:30:29.627Z,7.10
2023-05-19T19:32:57.042Z,7.43
2023-05-19T19:35:23.874Z,7.03
2023-05-19T19:37:51.733Z,7.00
2023-05-19T19:40:18.488Z,7.00
2023-05-19T19:42:45.367Z,6.72
2023-05-19T19:45:14.045Z,7.22
2023-05-19T19:47:42.455Z,7.72
2023-05-19T19:50:10.547Z,7.18
2023-05-19T19:52:37.622Z,9.30
2023-05-19T19:55:05.620Z,8.30
2023-05-19T19:57:34.172Z,7.63
2023-05-19T20:00:07.786Z,8.02
2023-05-19T20:03:02.241Z,7.83
2023-05-19T20:05:29.096Z,7.40
2023-05-19T20:07:55.853Z,7.75
2023-05-19T20:10:22.667Z,7.47
2023-05-19T20:12:50.583Z,7.10
2023-05-19T20:15:17.581Z,8.13
2023-05-19T20:17:44.344Z,7.30
2023-05-19T20:20:12.300Z,8.40
2023-05-19T20:22:39.323Z,8.30
2023-05-19T20:25:06.571Z,8.02
2023-05-19T20:27:33.323Z,8.70
2023-05-19T20:30:00.150Z,9.07
2023-05-19T20:32:27.015Z,9.75
2023-05-19T20:34:53.766Z,9.27
2023-05-19T20:37:22.086Z,8.93
2023-05-19T20:39:48.858Z,9.13
2023-05-19T20:42:15.683Z,10.18
2023-05-19T20:44:42.604Z,9.32
2023-05-19T20:47:09.536Z,10.88
2023-05-19T20:49:36.321Z,10.80
2023-05-19T20:52:03.199Z,10.52
2023-05-19T20:54:30.009Z,10.07
2023-05-19T20:56:56.777Z,10.32
2023-05-19T20:59:23.475Z,9.40
2023-05-19T21:01:50.215Z,8.48
2023-05-19T21:04:17.079Z,8.25
2023-05-19T21:06:43.864Z,8.57
2023-05-19T21:09:10.776Z,8.13
2023-05-19T21:11:37.568Z,8.07
2023-05-19T21:14:04.497Z,7.90
2023-05-19T21:16:31.965Z,6.88
2023-05-19T21:18:58.853Z,8.52
2023-05-19T21:21:26.188Z,7.63
2023-05-19T21:23:53.045Z,7.95
2023-05-19T21:26:19.849Z,7.18
2023-05-19T21:28:47.014Z,8.48
2023-05-19T21:31:13.774Z,7.65
2023-05-19T21:33:40.567Z,7.55
2023-05-19T21:36:07.593Z,7.13
2023-05-19T21:38:34.333Z,7.22
2023-05-19T21:41:02.073Z,6.85
2023-05-19T21:43:28.997Z,7.22
2023-05-19T21:45:55.760Z,7.25
2023-05-19T21:48:22.730Z,7.45
2023-05-19T21:50:54.395Z,6.68
2023-05-19T21:53:21.339Z,6.90
2023-05-19T21:55:48.511Z,6.97
2023-05-19T21:58:15.268Z,7.53
2023-05-19T22:00:42.254Z,7.68
2023-05-19T22:03:09.289Z,7.30
2023-05-19T22:05:38.085Z,7.30
2023-05-19T22:08:05.256Z,7.18
2023-05-19T22:10:32.166Z,7.10
2023-05-19T22:12:59.336Z,6.85
2023-05-19T22:15:26.728Z,6.93
2023-05-19T22:17:53.510Z,7.25
2023-05-19T22:20:20.599Z,7.78
2023-05-19T22:22:47.323Z,7.22
2023-05-19T22:25:14.114Z,7.65
2023-05-19T22:27:40.812Z,8.57
2023-05-19T22:30:08.069Z,8.63
2023-05-19T22:32:35.284Z,7.88
2023-05-19T22:35:02.124Z,8.30
2023-05-19T22:37:31.557Z,7.82
2023-05-19T22:39:58.258Z,9.40
2023-05-19T22:42:24.955Z,7.93
2023-05-19T22:44:51.689Z,8.98
2023-05-19T22:47:18.389Z,7.80
2023-05-19T22:49:45.281Z,8.02
2023-05-19T22:52:13.642Z,8.85
2023-05-19T22:54:40.479Z,10.20
2023-05-19T22:57:07.271Z,8.88
2023-05-19T22:59:35.399Z,8.75
2023-05-19T23:02:02.162Z,8.65
2023-05-19T23:04:28.868Z,8.52
2023-05-19T23:06:55.744Z,7.32
2023-05-19T23:09:22.471Z,7.80
2023-05-19T23:11:50.045Z,9.02
2023-05-19T23:14:18.480Z,8.80
2023-05-19T23:16:45.277Z,8.43
2023-05-19T23:19:12.318Z,8.82
2023-05-19T23:21:39.176Z,7.68
2023-05-19T23:24:06.463Z,7.30
2023-05-19T23:26:33.256Z,7.25
2023-05-19T23:29:00.044Z,7.68
2023-05-19T23:31:26.849Z,7.82
2023-05-19T23:33:54.707Z,8.30
2023-05-19T23:36:21.761Z,8.07
2023-05-19T23:38:48.475Z,8.15
2023-05-19T23:41:15.184Z,7.65
2023-05-19T23:43:41.973Z,8.30
2023-05-19T23:46:08.895Z,7.60
2023-05-19T23:48:36.651Z,8.77
2023-05-19T23:51:03.495Z,8.27
2023-05-19T23:53:30.207Z,7.28
2023-05-19T23:55:58.563Z,7.88
2023-05-19T23:58:25.577Z,8.07
